sensor_id;sensor_type;location;lat;lon;timestamp;pressure;altitude;pressure_sealevel;temperature;humidity
28167;BME280;15455;53.376;-6.262;2023-04-08T00:02:17;101988.38;;;4.41;100.00
28167;BME280;15455;53.376;-6.262;2023-04-08T00:05:03;101983.56;;;4.29;100.00
28167;BME280;15455;53.376;-6.262;2023-04-08T00:07:49;101989.34;;;4.24;100.00
28167;BME280;15455;53.376;-6.262;2023-04-08T00:10:35;101992.53;;;4.18;100.00
28167;BME280;15455;53.376;-6.262;2023-04-08T00:13:21;101989.88;;;4.16;100.00
28167;BME280;15455;53.376;-6.262;2023-04-08T00:16:06;101985.22;;;4.08;100.00
28167;BME280;15455;53.376;-6.262;2023-04-08T00:18:52;101987.84;;;3.90;100.00
28167;BME280;15455;53.376;-6.262;2023-04-08T00:21:37;101974.47;;;3.79;100.00
28167;BME280;15455;53.376;-6.262;2023-04-08T00:24:23;101983.53;;;3.71;100.00
28167;BME280;15455;53.376;-6.262;2023-04-08T00:27:08;101978.19;;;3.66;100.00
28167;BME280;15455;53.376;-6.262;2023-04-08T00:29:53;101983.34;;;3.66;100.00
28167;BME280;15455;53.376;-6.262;2023-04-08T00:32:39;101985.66;;;3.79;100.00
28167;BME280;15455;53.376;-6.262;2023-04-08T00:35:25;101973.84;;;3.85;100.00
28167;BME280;15455;53.376;-6.262;2023-04-08T00:38:11;101977.72;;;3.75;100.00
28167;BME280;15455;53.376;-6.262;2023-04-08T00:40:56;101979.31;;;3.53;100.00
28167;BME280;15455;53.376;-6.262;2023-04-08T00:43:42;101975.19;;;3.39;100.00
28167;BME280;15455;53.376;-6.262;2023-04-08T00:46:28;101979.09;;;3.30;100.00
28167;BME280;15455;53.376;-6.262;2023-04-08T00:49:13;101983.53;;;3.33;100.00
28167;BME280;15455;53.376;-6.262;2023-04-08T00:51:58;101985.72;;;3.43;100.00
28167;BME280;15455;53.376;-6.262;2023-04-08T00:54:44;101987.06;;;3.53;100.00
28167;BME280;15455;53.376;-6.262;2023-04-08T00:57:30;101984.53;;;3.55;100.00
28167;BME280;15455;53.376;-6.262;2023-04-08T01:00:16;101987.06;;;3.53;100.00
28167;BME280;15455;53.376;-6.262;2023-04-08T01:08:48;101981.22;;;3.57;100.00
28167;BME280;15455;53.376;-6.262;2023-04-08T01:11:37;101978.09;;;3.64;100.00
28167;BME280;15455;53.376;-6.262;2023-04-08T01:14:27;101978.19;;;3.66;100.00
28167;BME280;15455;53.376;-6.262;2023-04-08T01:17:14;101980.91;;;3.69;100.00
28167;BME280;15455;53.376;-6.262;2023-04-08T01:20:03;101976.84;;;3.74;100.00
28167;BME280;15455;53.376;-6.262;2023-04-08T01:25:48;101983.34;;;3.86;100.00
28167;BME280;15455;53.376;-6.262;2023-04-08T01:28:34;101972.63;;;3.96;100.00
28167;BME280;15455;53.376;-6.262;2023-04-08T01:31:21;101979.69;;;4.00;100.00
28167;BME280;15455;53.376;-6.262;2023-04-08T01:34:09;101977.47;;;4.08;100.00
28167;BME280;15455;53.376;-6.262;2023-04-08T01:36:57;101988.25;;;4.18;100.00
28167;BME280;15455;53.376;-6.262;2023-04-08T01:39:43;101982.59;;;4.27;100.00
28167;BME280;15455;53.376;-6.262;2023-04-08T01:42:30;101991.38;;;4.31;100.00
28167;BME280;15455;53.376;-6.262;2023-04-08T01:45:17;101988.19;;;4.37;100.00
28167;BME280;15455;53.376;-6.262;2023-04-08T01:48:03;101985.59;;;4.37;100.00
28167;BME280;15455;53.376;-6.262;2023-04-08T01:50:50;101981.03;;;4.31;100.00
28167;BME280;15455;53.376;-6.262;2023-04-08T01:53:36;101979.19;;;4.28;100.00
28167;BME280;15455;53.376;-6.262;2023-04-08T01:56:22;101981.53;;;4.22;100.00
28167;BME280;15455;53.376;-6.262;2023-04-08T01:59:14;101971.38;;;4.27;100.00
28167;BME280;15455;53.376;-6.262;2023-04-08T02:02:04;101966.50;;;4.13;100.00
28167;BME280;15455;53.376;-6.262;2023-04-08T02:04:52;101970.56;;;4.08;100.00
28167;BME280;15455;53.376;-6.262;2023-04-08T02:07:38;101970.44;;;4.05;100.00
28167;BME280;15455;53.376;-6.262;2023-04-08T02:10:23;101976.91;;;3.95;100.00
28167;BME280;15455;53.376;-6.262;2023-04-08T02:13:09;101965.19;;;3.84;100.00
28167;BME280;15455;53.376;-6.262;2023-04-08T02:16:23;101969.28;;;3.79;100.00
28167;BME280;15455;53.376;-6.262;2023-04-08T02:19:12;101977.78;;;3.76;100.00
28167;BME280;15455;53.376;-6.262;2023-04-08T02:22:04;101976.22;;;3.80;100.00
28167;BME280;15455;53.376;-6.262;2023-04-08T02:24:51;101971.19;;;3.83;100.00
28167;BME280;15455;53.376;-6.262;2023-04-08T02:27:39;101969.44;;;3.82;100.00
28167;BME280;15455;53.376;-6.262;2023-04-08T02:30:28;101971.13;;;3.81;100.00
28167;BME280;15455;53.376;-6.262;2023-04-08T02:33:17;101971.19;;;3.83;100.00
28167;BME280;15455;53.376;-6.262;2023-04-08T02:36:04;101974.94;;;3.90;100.00
28167;BME280;15455;53.376;-6.262;2023-04-08T02:38:50;101976.91;;;3.95;100.00
28167;BME280;15455;53.376;-6.262;2023-04-08T02:41:36;101975.56;;;4.04;100.00
28167;BME280;15455;53.376;-6.262;2023-04-08T02:44:22;101974.31;;;4.15;100.00
28167;BME280;15455;53.376;-6.262;2023-04-08T02:47:08;101981.09;;;4.32;100.00
28167;BME280;15455;53.376;-6.262;2023-04-08T02:49:53;101977.53;;;4.50;100.00
28167;BME280;15455;53.376;-6.262;2023-04-08T02:52:39;101978.69;;;4.57;100.00
28167;BME280;15455;53.376;-6.262;2023-04-08T02:55:25;101979.81;;;4.63;100.00
28167;BME280;15455;53.376;-6.262;2023-04-08T02:58:11;101974.63;;;4.63;100.00
28167;BME280;15455;53.376;-6.262;2023-04-08T03:00:56;101981.63;;;4.66;100.00
28167;BME280;15455;53.376;-6.262;2023-04-08T03:03:42;101976.34;;;4.63;100.00
28167;BME280;15455;53.376;-6.262;2023-04-08T03:06:27;101971.81;;;4.57;100.00
28167;BME280;15455;53.376;-6.262;2023-04-08T03:09:12;101979.50;;;4.56;100.00
28167;BME280;15455;53.376;-6.262;2023-04-08T03:11:58;101976.28;;;4.61;100.00
28167;BME280;15455;53.376;-6.262;2023-04-08T03:14:43;101974.63;;;4.63;100.00
28167;BME280;15455;53.376;-6.262;2023-04-08T03:17:29;101980.72;;;4.64;100.00
28167;BME280;15455;53.376;-6.262;2023-04-08T03:20:18;101978.00;;;4.61;100.00
28167;BME280;15455;53.376;-6.262;2023-04-08T03:23:03;101980.72;;;4.64;100.00
28167;BME280;15455;53.376;-6.262;2023-04-08T03:25:48;101973.13;;;4.68;100.00
28167;BME280;15455;53.376;-6.262;2023-04-08T03:28:34;101974.91;;;4.69;100.00
28167;BME280;15455;53.376;-6.262;2023-04-08T03:31:20;101970.44;;;4.65;100.00
28167;BME280;15455;53.376;-6.262;2023-04-08T03:34:06;101970.44;;;4.65;100.00
28167;BME280;15455;53.376;-6.262;2023-04-08T03:36:51;101979.94;;;4.66;100.00
28167;BME280;15455;53.376;-6.262;2023-04-08T03:39:37;101974.63;;;4.63;100.00
28167;BME280;15455;53.376;-6.262;2023-04-08T03:42:22;101972.66;;;4.58;100.00
28167;BME280;15455;53.376;-6.262;2023-04-08T03:45:08;101973.38;;;4.54;100.00
28167;BME280;15455;53.376;-6.262;2023-04-08T03:47:54;101970.47;;;4.46;100.00
28167;BME280;15455;53.376;-6.262;2023-04-08T03:50:39;101965.03;;;4.40;100.00
28167;BME280;15455;53.376;-6.262;2023-04-08T03:53:24;101962.03;;;4.30;100.00
28167;BME280;15455;53.376;-6.262;2023-04-08T03:56:12;101955.06;;;4.28;100.00
28167;BME280;15455;53.376;-6.262;2023-04-08T03:58:57;101957.53;;;4.25;100.00
28167;BME280;15455;53.376;-6.262;2023-04-08T04:01:43;101954.03;;;4.24;100.00
28167;BME280;15455;53.376;-6.262;2023-04-08T04:04:28;101954.03;;;4.24;100.00
28167;BME280;15455;53.376;-6.262;2023-04-08T04:07:14;101961.91;;;4.27;100.00
28167;BME280;15455;53.376;-6.262;2023-04-08T04:10:00;101951.13;;;4.16;100.00
28167;BME280;15455;53.376;-6.262;2023-04-08T04:12:46;101953.78;;;3.98;100.00
28167;BME280;15455;53.376;-6.262;2023-04-08T04:15:31;101945.56;;;3.88;100.00
28167;BME280;15455;53.376;-6.262;2023-04-08T04:18:17;101949.56;;;3.81;100.00
28167;BME280;15455;53.376;-6.262;2023-04-08T04:21:05;101950.03;;;3.72;100.00
28167;BME280;15455;53.376;-6.262;2023-04-08T04:23:51;101954.41;;;3.73;100.00
28167;BME280;15455;53.376;-6.262;2023-04-08T04:26:36;101950.25;;;3.77;100.00
28167;BME280;15455;53.376;-6.262;2023-04-08T04:29:24;101951.97;;;3.76;100.00
28167;BME280;15455;53.376;-6.262;2023-04-08T04:32:09;101954.59;;;3.78;100.00
28167;BME280;15455;53.376;-6.262;2023-04-08T04:34:55;101960.88;;;3.83;100.00
28167;BME280;15455;53.376;-6.262;2023-04-08T04:37:40;101958.34;;;3.85;100.00
28167;BME280;15455;53.376;-6.262;2023-04-08T04:40:26;101956.25;;;3.76;100.00
28167;BME280;15455;53.376;-6.262;2023-04-08T04:43:11;101955.22;;;3.72;100.00
28167;BME280;15455;53.376;-6.262;2023-04-08T04:45:56;101962.50;;;3.61;100.00
28167;BME280;15455;53.376;-6.262;2023-04-08T04:48:42;101950.56;;;3.45;100.00
28167;BME280;15455;53.376;-6.262;2023-04-08T04:51:30;101952.78;;;3.38;100.00
28167;BME280;15455;53.376;-6.262;2023-04-08T04:54:16;101953.44;;;3.34;100.00
28167;BME280;15455;53.376;-6.262;2023-04-08T04:57:02;101949.19;;;3.16;100.00
28167;BME280;15455;53.376;-6.262;2023-04-08T04:59:47;101947.66;;;3.20;100.00
28167;BME280;15455;53.376;-6.262;2023-04-08T05:02:33;101952.97;;;3.23;100.00
28167;BME280;15455;53.376;-6.262;2023-04-08T05:05:19;101960.38;;;3.35;100.00
28167;BME280;15455;53.376;-6.262;2023-04-08T05:08:05;101968.66;;;3.45;100.00
28167;BME280;15455;53.376;-6.262;2023-04-08T05:10:51;101974.28;;;3.56;100.00
28167;BME280;15455;53.376;-6.262;2023-04-08T05:13:39;101977.72;;;3.75;100.00
28167;BME280;15455;53.376;-6.262;2023-04-08T05:16:25;101984.13;;;3.83;100.00
28167;BME280;15455;53.376;-6.262;2023-04-08T05:19:11;101972.97;;;4.04;100.00
28167;BME280;15455;53.376;-6.262;2023-04-08T05:21:56;101974.25;;;4.13;100.00
28167;BME280;15455;53.376;-6.262;2023-04-08T05:24:42;101970.44;;;4.25;100.00
28167;BME280;15455;53.376;-6.262;2023-04-08T05:27:27;101981.53;;;4.22;100.00
28167;BME280;15455;53.376;-6.262;2023-04-08T05:30:13;101981.41;;;4.19;100.00
28167;BME280;15455;53.376;-6.262;2023-04-08T05:32:58;101986.44;;;4.16;100.00
28167;BME280;15455;53.376;-6.262;2023-04-08T05:35:45;101980.31;;;4.14;100.00
28167;BME280;15455;53.376;-6.262;2023-04-08T05:38:31;101991.91;;;4.04;100.00
28167;BME280;15455;53.376;-6.262;2023-04-08T05:41:16;101982.97;;;3.96;100.00
28167;BME280;15455;53.376;-6.262;2023-04-08T05:44:01;101994.09;;;4.14;100.00
28167;BME280;15455;53.376;-6.262;2023-04-08T05:46:47;101990.31;;;4.06;100.00
28167;BME280;15455;53.376;-6.262;2023-04-08T05:49:33;101990.72;;;3.96;100.00
28167;BME280;15455;53.376;-6.262;2023-04-08T05:52:18;101994.25;;;3.98;100.00
28167;BME280;15455;53.376;-6.262;2023-04-08T05:55:04;101995.28;;;4.02;100.00
28167;BME280;15455;53.376;-6.262;2023-04-08T05:57:50;101998.50;;;4.17;100.00
28167;BME280;15455;53.376;-6.262;2023-04-08T06:00:35;102003.81;;;4.40;100.00
28167;BME280;15455;53.376;-6.262;2023-04-08T06:03:21;102011.25;;;4.53;100.00
28167;BME280;15455;53.376;-6.262;2023-04-08T06:06:10;102020.69;;;4.72;100.00
28167;BME280;15455;53.376;-6.262;2023-04-08T06:08:58;102021.84;;;5.00;100.00
28167;BME280;15455;53.376;-6.262;2023-04-08T06:11:44;102019.00;;;5.15;100.00
28167;BME280;15455;53.376;-6.262;2023-04-08T06:14:31;102027.44;;;5.32;100.00
28167;BME280;15455;53.376;-6.262;2023-04-08T06:17:16;102032.16;;;5.42;100.00
28167;BME280;15455;53.376;-6.262;2023-04-08T06:20:02;102035.66;;;5.44;100.00
28167;BME280;15455;53.376;-6.262;2023-04-08T06:22:48;102035.78;;;5.47;100.00
28167;BME280;15455;53.376;-6.262;2023-04-08T06:25:33;102042.22;;;5.57;100.00
28167;BME280;15455;53.376;-6.262;2023-04-08T06:28:19;102035.56;;;5.64;100.00
28167;BME280;15455;53.376;-6.262;2023-04-08T06:31:04;102042.75;;;5.71;100.00
28167;BME280;15455;53.376;-6.262;2023-04-08T06:33:50;102037.88;;;5.79;100.00
28167;BME280;15455;53.376;-6.262;2023-04-08T06:36:36;102037.22;;;5.84;100.00
28167;BME280;15455;53.376;-6.262;2023-04-08T06:39:22;102050.38;;;5.90;100.00
28167;BME280;15455;53.376;-6.262;2023-04-08T06:42:07;102050.66;;;5.97;100.00
28167;BME280;15455;53.376;-6.262;2023-04-08T06:45:10;102045.88;;;6.07;100.00
28167;BME280;15455;53.376;-6.262;2023-04-08T06:47:55;102053.09;;;6.16;100.00
28167;BME280;15455;53.376;-6.262;2023-04-08T06:50:41;102053.41;;;6.24;100.00
28167;BME280;15455;53.376;-6.262;2023-04-08T06:53:27;102056.97;;;6.28;100.00
28167;BME280;15455;53.376;-6.262;2023-04-08T06:56:17;102066.53;;;6.29;100.00
28167;BME280;15455;53.376;-6.262;2023-04-08T06:59:02;102069.13;;;6.29;100.00
28167;BME280;15455;53.376;-6.262;2023-04-08T07:01:51;102062.16;;;6.28;100.00
28167;BME280;15455;53.376;-6.262;2023-04-08T07:04:37;102069.06;;;6.27;100.00
28167;BME280;15455;53.376;-6.262;2023-04-08T07:07:22;102062.13;;;6.26;100.00
28167;BME280;15455;53.376;-6.262;2023-04-08T07:10:08;102060.38;;;6.26;100.00
28167;BME280;15455;53.376;-6.262;2023-04-08T07:12:55;102065.78;;;6.31;100.00
28167;BME280;15455;53.376;-6.262;2023-04-08T07:15:41;102071.06;;;6.34;100.00
28167;BME280;15455;53.376;-6.262;2023-04-08T07:18:26;102078.00;;;6.35;100.00
28167;BME280;15455;53.376;-6.262;2023-04-08T07:21:11;102079.94;;;6.41;100.00
28167;BME280;15455;53.376;-6.262;2023-04-08T07:23:57;102075.69;;;6.43;100.00
28167;BME280;15455;53.376;-6.262;2023-04-08T07:26:43;102082.00;;;6.51;100.00
28167;BME280;15455;53.376;-6.262;2023-04-08T07:29:29;102085.00;;;6.62;100.00
28167;BME280;15455;53.376;-6.262;2023-04-08T07:32:15;102081.09;;;6.73;100.00
28167;BME280;15455;53.376;-6.262;2023-04-08T07:35:01;102071.72;;;6.78;100.00
28167;BME280;15455;53.376;-6.262;2023-04-08T07:37:47;102086.59;;;6.83;100.00
28167;BME280;15455;53.376;-6.262;2023-04-08T07:40:33;102084.09;;;6.86;100.00
28167;BME280;15455;53.376;-6.262;2023-04-08T07:43:18;102086.84;;;6.90;100.00
28167;BME280;15455;53.376;-6.262;2023-04-08T07:46:05;102089.72;;;6.98;100.00
28167;BME280;15455;53.376;-6.262;2023-04-08T07:48:50;102089.13;;;7.07;100.00
28167;BME280;15455;53.376;-6.262;2023-04-08T07:51:37;102090.34;;;7.17;100.00
28167;BME280;15455;53.376;-6.262;2023-04-08T07:54:23;102090.66;;;7.27;100.00
28167;BME280;15455;53.376;-6.262;2023-04-08T07:57:08;102102.41;;;7.42;100.00
28167;BME280;15455;53.376;-6.262;2023-04-08T07:59:54;102110.59;;;7.54;100.00
28167;BME280;15455;53.376;-6.262;2023-04-08T08:02:40;102106.50;;;7.62;100.00
28167;BME280;15455;53.376;-6.262;2023-04-08T08:05:25;102104.22;;;7.72;100.00
28167;BME280;15455;53.376;-6.262;2023-04-08T08:08:11;102100.22;;;7.83;100.00
28167;BME280;15455;53.376;-6.262;2023-04-08T08:10:56;102101.41;;;7.94;100.00
28167;BME280;15455;53.376;-6.262;2023-04-08T08:13:42;102107.09;;;8.10;100.00
28167;BME280;15455;53.376;-6.262;2023-04-08T08:16:28;102097.22;;;8.28;100.00
28167;BME280;15455;53.376;-6.262;2023-04-08T08:19:14;102103.81;;;8.46;100.00
28167;BME280;15455;53.376;-6.262;2023-04-08T08:21:59;102094.69;;;8.60;100.00
28167;BME280;15455;53.376;-6.262;2023-04-08T08:24:45;102090.56;;;8.68;100.00
28167;BME280;15455;53.376;-6.262;2023-04-08T08:27:30;102092.50;;;8.76;100.00
28167;BME280;15455;53.376;-6.262;2023-04-08T08:30:16;102074.47;;;8.83;100.00
28167;BME280;15455;53.376;-6.262;2023-04-08T08:33:03;102076.53;;;8.97;100.00
28167;BME280;15455;53.376;-6.262;2023-04-08T08:35:49;102068.06;;;9.06;100.00
28167;BME280;15455;53.376;-6.262;2023-04-08T08:38:34;102064.03;;;9.17;100.00
28167;BME280;15455;53.376;-6.262;2023-04-08T08:41:20;102055.31;;;9.15;100.00
28167;BME280;15455;53.376;-6.262;2023-04-08T08:44:06;102040.75;;;9.23;100.00
28167;BME280;15455;53.376;-6.262;2023-04-08T08:46:52;102034.03;;;9.34;100.00
28167;BME280;15455;53.376;-6.262;2023-04-08T08:49:38;102029.09;;;9.45;100.00
28167;BME280;15455;53.376;-6.262;2023-04-08T08:52:23;102030.16;;;9.53;100.00
28167;BME280;15455;53.376;-6.262;2023-04-08T08:55:09;102032.88;;;9.60;100.00
28167;BME280;15455;53.376;-6.262;2023-04-08T08:58:14;102019.13;;;9.65;100.00
28167;BME280;15455;53.376;-6.262;2023-04-08T09:00:59;102024.56;;;9.78;100.00
28167;BME280;15455;53.376;-6.262;2023-04-08T09:03:45;102017.06;;;9.91;100.00
28167;BME280;15455;53.376;-6.262;2023-04-08T09:06:31;102017.31;;;10.04;100.00
28167;BME280;15455;53.376;-6.262;2023-04-08T09:09:17;102017.69;;;10.24;100.00
28167;BME280;15455;53.376;-6.262;2023-04-08T09:12:02;102011.31;;;10.54;100.00
28167;BME280;15455;53.376;-6.262;2023-04-08T09:15:05;101998.97;;;10.94;100.00
28167;BME280;15455;53.376;-6.262;2023-04-08T09:17:51;102000.38;;;11.30;100.00
28167;BME280;15455;53.376;-6.262;2023-04-08T09:20:51;101986.81;;;11.57;100.00
28167;BME280;15455;53.376;-6.262;2023-04-08T09:23:47;101982.72;;;11.76;100.00
28167;BME280;15455;53.376;-6.262;2023-04-08T09:26:34;101982.03;;;11.93;100.00
28167;BME280;15455;53.376;-6.262;2023-04-08T09:29:23;101966.44;;;11.97;100.00
28167;BME280;15455;53.376;-6.262;2023-04-08T09:32:11;101968.28;;;12.08;100.00
28167;BME280;15455;53.376;-6.262;2023-04-08T09:34:56;101980.44;;;12.03;100.00
28167;BME280;15455;53.376;-6.262;2023-04-08T09:37:42;101976.03;;;11.98;100.00
28167;BME280;15455;53.376;-6.262;2023-04-08T09:40:32;101976.91;;;11.99;100.00
28167;BME280;15455;53.376;-6.262;2023-04-08T09:43:22;101975.31;;;12.12;100.00
28167;BME280;15455;53.376;-6.262;2023-04-08T09:46:10;101967.56;;;12.23;100.00
28167;BME280;15455;53.376;-6.262;2023-04-08T09:49:06;101978.19;;;12.37;100.00
28167;BME280;15455;53.376;-6.262;2023-04-08T09:55:04;101979.09;;;12.42;100.00
28167;BME280;15455;53.376;-6.262;2023-04-08T09:57:54;101980.88;;;12.44;100.00
28167;BME280;15455;53.376;-6.262;2023-04-08T10:00:46;101981.84;;;12.53;100.00
28167;BME280;15455;53.376;-6.262;2023-04-08T10:03:48;101973.84;;;12.39;100.00
28167;BME280;15455;53.376;-6.262;2023-04-08T10:06:37;101979.09;;;12.42;100.00
28167;BME280;15455;53.376;-6.262;2023-04-08T10:09:25;101976.59;;;12.51;100.00
28167;BME280;15455;53.376;-6.262;2023-04-08T10:12:12;101980.94;;;12.54;100.00
28167;BME280;15455;53.376;-6.262;2023-04-08T10:20:57;101971.75;;;12.05;100.00
28167;BME280;15455;53.376;-6.262;2023-04-08T10:23:56;101978.75;;;12.06;100.00
28167;BME280;15455;53.376;-6.262;2023-04-08T10:26:50;101977.06;;;12.13;100.00
28167;BME280;15455;53.376;-6.262;2023-04-08T10:29:35;101972.78;;;12.20;100.00
28167;BME280;15455;53.376;-6.262;2023-04-08T10:32:26;101978.97;;;12.26;100.00
28167;BME280;15455;53.376;-6.262;2023-04-08T10:35:13;101975.44;;;12.26;100.00
28167;BME280;15455;53.376;-6.262;2023-04-08T10:37:58;101970.34;;;12.37;100.00
28167;BME280;15455;53.376;-6.262;2023-04-08T10:40:44;101975.69;;;12.52;100.00
28167;BME280;15455;53.376;-6.262;2023-04-08T10:43:33;101974.09;;;12.68;100.00
28167;BME280;15455;53.376;-6.262;2023-04-08T10:46:19;101963.69;;;12.76;100.00
28167;BME280;15455;53.376;-6.262;2023-04-08T10:49:06;101962.88;;;12.80;100.00
28167;BME280;15455;53.376;-6.262;2023-04-08T10:51:53;101959.31;;;12.76;100.00
28167;BME280;15455;53.376;-6.262;2023-04-08T10:54:45;101948.81;;;12.72;100.00
28167;BME280;15455;53.376;-6.262;2023-04-08T10:57:32;101959.31;;;12.75;100.00
28167;BME280;15455;53.376;-6.262;2023-04-08T11:00:38;101960.16;;;12.72;100.00
28167;BME280;15455;53.376;-6.262;2023-04-08T11:03:26;101954.06;;;12.72;100.00
28167;BME280;15455;53.376;-6.262;2023-04-08T11:06:12;101958.50;;;12.83;100.00
28167;BME280;15455;53.376;-6.262;2023-04-08T11:09:01;101952.47;;;12.94;100.00
28167;BME280;15455;53.376;-6.262;2023-04-08T11:11:47;101953.41;;;13.00;100.00
28167;BME280;15455;53.376;-6.262;2023-04-08T11:14:32;101953.41;;;13.03;100.00
28167;BME280;15455;53.376;-6.262;2023-04-08T11:17:18;101957.78;;;13.03;100.00
28167;BME280;15455;53.376;-6.262;2023-04-08T11:20:04;101953.41;;;13.00;100.00
28167;BME280;15455;53.376;-6.262;2023-04-08T11:22:50;101954.19;;;12.90;100.00
28167;BME280;15455;53.376;-6.262;2023-04-08T11:25:36;101952.44;;;12.89;100.00
28167;BME280;15455;53.376;-6.262;2023-04-08T11:28:22;101954.22;;;12.95;100.00
28167;BME280;15455;53.376;-6.262;2023-04-08T11:31:08;101953.34;;;12.93;100.00
28167;BME280;15455;53.376;-6.262;2023-04-08T11:33:54;101954.25;;;12.98;100.00
28167;BME280;15455;53.376;-6.262;2023-04-08T11:36:41;101951.66;;;13.04;100.00
28167;BME280;15455;53.376;-6.262;2023-04-08T11:39:26;101950.00;;;13.20;100.00
28167;BME280;15455;53.376;-6.262;2023-04-08T11:42:38;101944.78;;;13.21;100.00
28167;BME280;15455;53.376;-6.262;2023-04-08T11:45:24;101940.47;;;13.30;100.00
28167;BME280;15455;53.376;-6.262;2023-04-08T11:48:10;101944.03;;;13.40;100.00
28167;BME280;15455;53.376;-6.262;2023-04-08T11:51:07;101944.84;;;13.31;100.00
28167;BME280;15455;53.376;-6.262;2023-04-08T11:53:53;101951.81;;;13.27;100.00
28167;BME280;15455;53.376;-6.262;2023-04-08T11:56:44;101942.28;;;13.35;100.00
28167;BME280;15455;53.376;-6.262;2023-04-08T11:59:32;101951.06;;;13.47;100.00
28167;BME280;15455;53.376;-6.262;2023-04-08T12:02:18;101950.22;;;13.54;100.00
28167;BME280;15455;53.376;-6.262;2023-04-08T12:05:05;101943.22;;;13.53;100.00
28167;BME280;15455;53.376;-6.262;2023-04-08T12:07:51;101939.72;;;13.46;100.00
28167;BME280;15455;53.376;-6.262;2023-04-08T12:10:36;101945.00;;;13.55;100.00
28167;BME280;15455;53.376;-6.262;2023-04-08T12:13:22;101940.66;;;13.67;100.00
28167;BME280;15455;53.376;-6.262;2023-04-08T12:16:07;101938.13;;;13.82;100.00
28167;BME280;15455;53.376;-6.262;2023-04-08T12:18:53;101944.28;;;14.00;100.00
28167;BME280;15455;53.376;-6.262;2023-04-08T12:21:39;101943.44;;;14.13;100.00
28167;BME280;15455;53.376;-6.262;2023-04-08T12:24:24;101946.13;;;14.52;100.00
28167;BME280;15455;53.376;-6.262;2023-04-08T12:27:10;101948.75;;;14.66;100.00
28167;BME280;15455;53.376;-6.262;2023-04-08T12:29:56;101944.38;;;14.71;100.00
28167;BME280;15455;53.376;-6.262;2023-04-08T12:32:41;101952.25;;;14.82;100.00
28167;BME280;15455;53.376;-6.262;2023-04-08T12:35:30;101947.88;;;14.88;100.00
28167;BME280;15455;53.376;-6.262;2023-04-08T12:38:15;101940.88;;;14.86;100.00
28167;BME280;15455;53.376;-6.262;2023-04-08T12:41:01;101952.22;;;15.00;100.00
28167;BME280;15455;53.376;-6.262;2023-04-08T12:43:46;101947.00;;;14.92;100.00
28167;BME280;15455;53.376;-6.262;2023-04-08T12:46:32;101944.38;;;14.82;100.00
28167;BME280;15455;53.376;-6.262;2023-04-08T12:49:18;101943.50;;;14.63;100.00
28167;BME280;15455;53.376;-6.262;2023-04-08T12:52:03;101943.47;;;14.46;100.00
28167;BME280;15455;53.376;-6.262;2023-04-08T12:54:49;101949.59;;;14.28;100.00
28167;BME280;15455;53.376;-6.262;2023-04-08T12:57:34;101936.41;;;14.17;100.00
28167;BME280;15455;53.376;-6.262;2023-04-08T13:00:20;101938.13;;;13.98;100.00
28167;BME280;15455;53.376;-6.262;2023-04-08T13:03:05;101942.50;;;13.91;100.00
28167;BME280;15455;53.376;-6.262;2023-04-08T13:05:51;101939.84;;;13.85;100.00
28167;BME280;15455;53.376;-6.262;2023-04-08T13:08:36;101940.69;;;13.76;100.00
28167;BME280;15455;53.376;-6.262;2023-04-08T13:11:22;101938.13;;;13.82;100.00
28167;BME280;15455;53.376;-6.262;2023-04-08T13:14:07;101938.13;;;13.88;100.00
28167;BME280;15455;53.376;-6.262;2023-04-08T13:16:53;101918.03;;;13.98;100.00
28167;BME280;15455;53.376;-6.262;2023-04-08T13:19:38;101933.78;;;14.15;100.00
28167;BME280;15455;53.376;-6.262;2023-04-08T13:22:24;101926.84;;;14.36;100.00
28167;BME280;15455;53.376;-6.262;2023-04-08T13:25:09;101920.72;;;14.51;100.00
28167;BME280;15455;53.376;-6.262;2023-04-08T13:27:55;101926.00;;;14.69;100.00
28167;BME280;15455;53.376;-6.262;2023-04-08T13:30:40;101925.09;;;14.83;100.00
28167;BME280;15455;53.376;-6.262;2023-04-08T13:33:26;101932.13;;;14.68;100.00
28167;BME280;15455;53.376;-6.262;2023-04-08T13:36:12;101925.06;;;14.47;100.00
28167;BME280;15455;53.376;-6.262;2023-04-08T13:38:57;101922.47;;;14.33;100.00
28167;BME280;15455;53.376;-6.262;2023-04-08T13:41:43;101924.19;;;14.30;100.00
28167;BME280;15455;53.376;-6.262;2023-04-08T13:44:28;101920.69;;;14.20;100.00
28167;BME280;15455;53.376;-6.262;2023-04-08T13:47:14;101918.94;;;14.27;100.00
28167;BME280;15455;53.376;-6.262;2023-04-08T13:50:00;101923.31;;;14.26;100.00
28167;BME280;15455;53.376;-6.262;2023-04-08T13:52:45;101918.03;;;14.06;100.00
28167;BME280;15455;53.376;-6.262;2023-04-08T13:55:31;101922.38;;;14.01;100.00
28167;BME280;15455;53.376;-6.262;2023-04-08T13:58:16;101921.47;;;13.85;100.00
28167;BME280;15455;53.376;-6.262;2023-04-08T14:01:08;101911.03;;;13.97;100.00
28167;BME280;15455;53.376;-6.262;2023-04-08T14:03:54;101907.53;;;14.01;100.00
28167;BME280;15455;53.376;-6.262;2023-04-08T14:06:39;101914.50;;;13.96;100.00
28167;BME280;15455;53.376;-6.262;2023-04-08T14:09:25;101911.03;;;13.94;100.00
28167;BME280;15455;53.376;-6.262;2023-04-08T14:12:10;101916.22;;;13.88;100.00
28167;BME280;15455;53.376;-6.262;2023-04-08T14:14:56;101915.38;;;13.87;100.00
28167;BME280;15455;53.376;-6.262;2023-04-08T14:17:41;101911.84;;;13.81;100.00
28167;BME280;15455;53.376;-6.262;2023-04-08T14:20:26;101905.72;;;13.80;100.00
28167;BME280;15455;53.376;-6.262;2023-04-08T14:23:12;101916.22;;;13.83;100.00
28167;BME280;15455;53.376;-6.262;2023-04-08T14:25:58;101903.09;;;13.83;100.00
28167;BME280;15455;53.376;-6.262;2023-04-08T14:28:45;101903.94;;;13.70;100.00
28167;BME280;15455;53.376;-6.262;2023-04-08T14:31:32;101908.28;;;13.57;100.00
28167;BME280;15455;53.376;-6.262;2023-04-08T14:34:18;101905.66;;;13.52;100.00